createdAt,value
2017-12-12T00:01:51.901Z,1.70
2017-12-12T00:04:20.529Z,1.77
2017-12-12T00:06:49.049Z,1.70
2017-12-12T00:09:17.505Z,1.80
2017-12-12T00:11:46.222Z,1.60
2017-12-12T00:14:14.952Z,2.00
2017-12-12T00:16:43.482Z,1.90
2017-12-12T00:19:11.954Z,2.33
2017-12-12T00:21:40.716Z,1.90
2017-12-12T00:24:09.264Z,2.13
2017-12-12T00:26:37.791Z,1.70
2017-12-12T00:29:06.350Z,1.70
2017-12-12T00:31:34.887Z,1.90
2017-12-12T00:34:03.570Z,1.90
2017-12-12T00:36:32.118Z,1.67
2017-12-12T00:39:00.785Z,1.53
2017-12-12T00:41:29.263Z,1.50
2017-12-12T00:43:57.740Z,2.00
2017-12-12T00:46:26.382Z,1.73
2017-12-12T00:48:55.041Z,1.80
2017-12-12T00:51:23.517Z,1.87
2017-12-12T00:53:51.962Z,1.63
2017-12-12T00:56:20.451Z,1.60
2017-12-12T00:58:49.176Z,1.80
2017-12-12T01:01:17.698Z,1.80
2017-12-12T01:03:46.198Z,1.93
2017-12-12T01:06:14.700Z,1.80
2017-12-12T01:08:43.158Z,1.60
2017-12-12T01:11:11.673Z,1.47
2017-12-12T01:13:40.230Z,1.50
2017-12-12T01:16:08.727Z,1.50
2017-12-12T01:18:37.254Z,1.60
2017-12-12T01:21:05.792Z,1.50
2017-12-12T01:23:34.510Z,1.50
2017-12-12T01:26:03.127Z,1.43
2017-12-12T01:28:31.619Z,1.27
2017-12-12T01:31:00.137Z,1.70
2017-12-12T01:33:28.801Z,1.67
2017-12-12T01:35:57.434Z,1.30
2017-12-12T01:38:26.086Z,1.50
2017-12-12T01:40:55.243Z,1.40
2017-12-12T01:43:24.215Z,1.60
2017-12-12T01:45:53.210Z,1.37
2017-12-12T01:48:21.845Z,1.73
2017-12-12T01:50:50.609Z,1.53
2017-12-12T01:53:19.177Z,1.40
2017-12-12T01:55:47.753Z,1.33
2017-12-12T01:58:16.609Z,1.57
2017-12-12T02:00:45.907Z,1.30
2017-12-12T02:03:14.784Z,1.60
2017-12-12T02:05:43.675Z,1.47
2017-12-12T02:08:12.457Z,1.30
2017-12-12T02:10:41.086Z,1.33
2017-12-12T02:13:09.736Z,1.50
2017-12-12T02:15:38.290Z,1.40
2017-12-12T02:18:06.862Z,1.20
2017-12-12T02:20:35.381Z,1.40
2017-12-12T02:23:04.140Z,1.20
2017-12-12T02:25:32.791Z,1.67
2017-12-12T02:28:01.469Z,1.40
2017-12-12T02:30:30.194Z,1.20
2017-12-12T02:32:58.835Z,1.30
2017-12-12T02:35:27.760Z,1.40
2017-12-12T02:37:56.390Z,1.27
2017-12-12T02:40:25.103Z,1.30
2017-12-12T02:42:53.589Z,1.37
2017-12-12T02:45:22.280Z,1.27
2017-12-12T02:47:51.162Z,1.00
2017-12-12T02:50:19.689Z,1.50
2017-12-12T02:52:48.321Z,1.30
2017-12-12T02:55:16.849Z,1.30
2017-12-12T02:57:45.450Z,1.20
2017-12-12T03:00:14.298Z,1.30
2017-12-12T03:02:42.778Z,1.10
2017-12-12T03:05:11.325Z,1.40
2017-12-12T03:07:46.409Z,1.30
2017-12-12T03:10:14.982Z,1.00
2017-12-12T03:12:43.481Z,1.10
2017-12-12T03:15:12.268Z,1.10
2017-12-12T03:17:40.918Z,0.97
2017-12-12T03:20:09.468Z,1.27
2017-12-12T03:22:38.035Z,1.07
2017-12-12T03:25:06.704Z,1.33
2017-12-12T03:27:35.231Z,1.23
2017-12-12T03:30:03.804Z,1.00
2017-12-12T03:32:32.401Z,1.20
2017-12-12T03:35:00.903Z,1.20
2017-12-12T03:37:29.604Z,1.20
2017-12-12T03:39:58.092Z,1.00
2017-12-12T03:42:26.589Z,1.07
2017-12-12T03:44:55.409Z,1.00
2017-12-12T03:47:23.924Z,1.10
2017-12-12T03:49:52.613Z,1.00
2017-12-12T03:52:21.257Z,1.20
2017-12-12T03:54:49.952Z,1.10
2017-12-12T03:57:18.586Z,1.10
2017-12-12T03:59:47.105Z,0.90
2017-12-12T04:02:15.625Z,1.20
2017-12-12T04:04:44.315Z,1.10
2017-12-12T04:07:13.050Z,0.90
2017-12-12T04:09:41.636Z,1.10
2017-12-12T04:12:10.180Z,1.00
2017-12-12T04:14:38.682Z,1.13
2017-12-12T04:17:07.540Z,1.00
2017-12-12T04:19:36.182Z,1.00
2017-12-12T04:22:04.906Z,1.10
2017-12-12T04:24:33.552Z,1.10
2017-12-12T04:27:02.061Z,1.00
2017-12-12T04:29:30.723Z,0.90
2017-12-12T04:31:59.243Z,0.90
2017-12-12T04:34:27.747Z,1.00
2017-12-12T04:36:56.319Z,1.00
2017-12-12T04:39:25.066Z,0.90
2017-12-12T04:41:53.590Z,0.90
2017-12-12T04:44:22.054Z,0.90
2017-12-12T04:46:50.574Z,0.80
2017-12-12T04:49:19.265Z,1.00
2017-12-12T04:51:47.793Z,0.97
2017-12-12T04:54:16.355Z,0.90
2017-12-12T04:56:45.075Z,0.83
2017-12-12T04:59:13.734Z,0.93
2017-12-12T05:04:37.598Z,0.90
2017-12-12T05:07:05.913Z,0.80
2017-12-12T05:09:34.331Z,0.90
2017-12-12T05:12:02.826Z,0.90
2017-12-12T05:14:31.155Z,1.00
2017-12-12T05:16:59.493Z,0.90
2017-12-12T05:19:27.850Z,0.87
2017-12-12T05:21:56.429Z,0.90
2017-12-12T05:24:24.749Z,0.80
2017-12-12T05:26:53.166Z,0.90
2017-12-12T05:29:21.653Z,0.70
2017-12-12T05:31:50.007Z,0.80
2017-12-12T05:34:18.309Z,1.00
2017-12-12T05:36:46.597Z,0.80
2017-12-12T05:39:14.939Z,0.90
2017-12-12T05:41:43.230Z,0.80
2017-12-12T05:44:16.190Z,0.90
2017-12-12T05:46:44.541Z,0.80
2017-12-12T05:49:13.420Z,0.90
2017-12-12T05:51:41.742Z,0.90
2017-12-12T05:54:10.014Z,0.87
2017-12-12T05:56:38.305Z,1.00
2017-12-12T05:59:06.653Z,0.90
2017-12-12T06:01:34.909Z,2.00
2017-12-12T06:04:03.953Z,2.47
2017-12-12T06:06:32.357Z,2.37
2017-12-12T06:09:00.621Z,2.80
2017-12-12T06:11:28.899Z,2.10
2017-12-12T06:13:57.169Z,1.83
2017-12-12T06:16:25.481Z,1.80
2017-12-12T06:18:54.298Z,2.20
2017-12-12T06:21:22.633Z,1.40
2017-12-12T06:23:50.962Z,1.70
2017-12-12T06:26:19.249Z,1.93
2017-12-12T06:28:47.532Z,1.70
2017-12-12T06:31:15.809Z,2.17
2017-12-12T06:33:44.110Z,1.87
2017-12-12T06:36:12.751Z,1.87
2017-12-12T06:38:47.556Z,1.70
2017-12-12T06:41:15.861Z,1.30
2017-12-12T06:43:44.125Z,1.10
2017-12-12T06:46:14.936Z,1.70
2017-12-12T06:48:44.122Z,1.50
2017-12-12T06:51:12.445Z,1.60
2017-12-12T06:53:41.061Z,1.50
2017-12-12T06:56:11.384Z,1.53
2017-12-12T06:58:40.190Z,1.10
2017-12-12T07:01:11.413Z,1.50
2017-12-12T07:03:39.857Z,1.23
2017-12-12T07:06:08.137Z,1.10
2017-12-12T07:08:36.909Z,1.40
2017-12-12T07:11:05.198Z,1.77
2017-12-12T07:13:33.437Z,1.30
2017-12-12T07:16:01.713Z,1.10
2017-12-12T07:18:29.953Z,1.40
2017-12-12T07:20:58.218Z,1.47
2017-12-12T07:23:26.537Z,1.33
2017-12-12T07:25:54.888Z,1.30
2017-12-12T07:28:23.229Z,1.10
2017-12-12T07:30:51.536Z,1.03
2017-12-12T07:33:19.803Z,1.17
2017-12-12T07:35:48.069Z,1.27
2017-12-12T07:38:16.369Z,1.03
2017-12-12T07:40:44.729Z,0.97
2017-12-12T07:43:13.109Z,1.20
2017-12-12T07:45:41.548Z,1.10
2017-12-12T07:48:09.995Z,1.23
2017-12-12T07:50:38.264Z,1.00
2017-12-12T07:53:06.567Z,1.00
2017-12-12T07:55:34.922Z,1.00
2017-12-12T07:58:03.429Z,0.83
2017-12-12T08:00:31.789Z,1.10
2017-12-12T08:03:00.333Z,1.00
2017-12-12T08:05:28.645Z,0.97
2017-12-12T08:07:57.056Z,1.10
2017-12-12T08:10:25.785Z,0.80
2017-12-12T08:12:54.017Z,1.00
2017-12-12T08:15:23.257Z,1.20
2017-12-12T08:17:51.611Z,0.90
2017-12-12T08:20:19.868Z,1.10
2017-12-12T08:22:48.200Z,0.93
2017-12-12T08:25:16.489Z,1.00
2017-12-12T08:27:44.724Z,0.90
2017-12-12T08:30:13.231Z,1.00
2017-12-12T08:32:41.504Z,1.07
2017-12-12T08:35:09.814Z,0.70
2017-12-12T08:37:38.094Z,0.90
2017-12-12T08:40:06.545Z,0.77
2017-12-12T08:42:34.804Z,0.80
2017-12-12T08:45:03.040Z,0.80
2017-12-12T08:47:31.384Z,0.90
2017-12-12T08:49:59.617Z,0.90
2017-12-12T08:52:28.135Z,0.87
2017-12-12T08:54:56.373Z,0.90
2017-12-12T08:57:24.678Z,0.80
2017-12-12T08:59:52.942Z,0.80
2017-12-12T09:02:21.238Z,0.67
2017-12-12T09:04:49.477Z,0.80
2017-12-12T09:07:17.793Z,0.70
2017-12-12T09:09:46.035Z,0.90
2017-12-12T09:12:14.556Z,0.70
2017-12-12T09:14:42.802Z,0.70
2017-12-12T09:17:11.126Z,0.90
2017-12-12T09:19:39.391Z,0.83
2017-12-12T09:22:07.704Z,0.80
2017-12-12T09:24:35.985Z,1.00
2017-12-12T09:27:04.302Z,1.40
2017-12-12T09:29:32.586Z,1.10
2017-12-12T09:32:00.901Z,0.80
2017-12-12T09:34:29.154Z,0.90
2017-12-12T09:36:57.449Z,1.13
2017-12-12T09:39:25.716Z,0.80
2017-12-12T09:41:54.005Z,0.90
2017-12-12T09:44:22.339Z,0.90
2017-12-12T09:46:50.681Z,1.07
2017-12-12T09:49:19.069Z,0.80
2017-12-12T09:51:47.397Z,0.90
2017-12-12T09:54:15.621Z,0.83
2017-12-12T09:56:43.917Z,0.80
2017-12-12T09:59:12.153Z,0.90
2017-12-12T10:01:40.467Z,0.80
2017-12-12T10:04:08.745Z,1.00
2017-12-12T10:06:37.051Z,0.90
2017-12-12T10:09:05.463Z,1.57
2017-12-12T10:11:33.781Z,0.80
2017-12-12T10:14:02.052Z,0.90
2017-12-12T10:16:30.413Z,0.90
2017-12-12T10:18:58.657Z,1.10
2017-12-12T10:21:26.997Z,0.90
2017-12-12T10:23:55.297Z,0.90
2017-12-12T10:26:23.618Z,0.80
2017-12-12T10:28:51.907Z,1.00
2017-12-12T10:31:20.222Z,0.80
2017-12-12T10:33:48.517Z,0.90
2017-12-12T10:36:16.818Z,0.90
2017-12-12T10:38:45.084Z,0.77
2017-12-12T10:41:13.516Z,1.10
2017-12-12T10:43:41.819Z,0.80
2017-12-12T10:46:10.181Z,0.90
2017-12-12T10:48:38.571Z,0.80
2017-12-12T10:51:06.876Z,0.80
2017-12-12T10:53:35.220Z,1.10
2017-12-12T10:56:03.541Z,0.90
2017-12-12T10:58:31.804Z,0.90
2017-12-12T11:01:00.122Z,0.90
2017-12-12T11:03:28.365Z,0.90
2017-12-12T11:05:56.689Z,0.90
2017-12-12T11:08:24.918Z,1.00
2017-12-12T11:10:53.238Z,0.90
2017-12-12T11:13:21.478Z,0.80
2017-12-12T11:15:49.802Z,0.70
2017-12-12T11:18:18.057Z,1.07
2017-12-12T11:20:46.353Z,1.20
2017-12-12T11:23:14.610Z,1.00
2017-12-12T11:25:42.933Z,1.37
2017-12-12T11:28:11.518Z,1.20
2017-12-12T11:30:39.837Z,1.00
2017-12-12T11:33:08.309Z,1.40
2017-12-12T11:35:36.573Z,1.20
2017-12-12T11:38:04.843Z,1.10
2017-12-12T11:40:33.118Z,0.90
2017-12-12T11:43:01.381Z,1.10
2017-12-12T11:45:29.657Z,0.83
2017-12-12T11:47:57.893Z,1.17
2017-12-12T11:50:26.294Z,1.10
2017-12-12T11:52:54.548Z,1.20
2017-12-12T11:55:22.861Z,1.23
2017-12-12T11:57:51.280Z,1.10
2017-12-12T12:00:19.565Z,0.93
2017-12-12T12:02:48.141Z,1.10
2017-12-12T12:05:16.598Z,1.57
2017-12-12T12:07:44.845Z,1.03
2017-12-12T12:10:13.121Z,0.93
2017-12-12T12:12:41.548Z,0.90
2017-12-12T12:15:09.920Z,0.90
2017-12-12T12:17:38.214Z,1.20
2017-12-12T12:20:06.526Z,1.07
2017-12-12T12:22:34.835Z,1.30
2017-12-12T12:25:03.154Z,1.20
2017-12-12T12:27:31.475Z,1.10
2017-12-12T12:29:59.873Z,1.50
2017-12-12T12:32:28.408Z,1.40
2017-12-12T12:34:56.658Z,1.37
2017-12-12T12:37:24.981Z,1.30
2017-12-12T12:39:53.226Z,1.13
2017-12-12T12:42:21.564Z,1.33
2017-12-12T12:44:49.853Z,1.90
2017-12-12T12:47:18.145Z,1.40
2017-12-12T12:49:46.428Z,1.37
2017-12-12T12:52:15.808Z,1.37
2017-12-12T12:54:44.089Z,1.70
2017-12-12T12:57:12.426Z,1.40
2017-12-12T12:59:40.720Z,1.70
2017-12-12T13:02:09.109Z,1.50
2017-12-12T13:04:37.364Z,1.40
2017-12-12T13:07:05.680Z,1.53
2017-12-12T13:09:33.934Z,1.77
2017-12-12T13:12:02.453Z,1.60
2017-12-12T13:14:30.721Z,1.30
2017-12-12T13:16:59.185Z,1.33
2017-12-12T13:19:27.441Z,1.93
2017-12-12T13:21:55.857Z,1.80
2017-12-12T13:24:24.128Z,1.80
2017-12-12T13:26:52.414Z,1.70
2017-12-12T13:29:20.763Z,1.60
2017-12-12T13:31:49.261Z,1.50
2017-12-12T13:34:17.698Z,1.70
2017-12-12T13:36:45.997Z,1.90
2017-12-12T13:39:14.233Z,2.30
2017-12-12T13:41:42.517Z,2.20
2017-12-12T13:44:10.814Z,2.13
2017-12-12T13:46:39.092Z,2.07
2017-12-12T13:49:07.378Z,1.90
2017-12-12T13:51:35.677Z,2.30
2017-12-12T13:54:03.949Z,2.47
2017-12-12T13:56:32.254Z,2.10
2017-12-12T13:59:00.548Z,2.20
2017-12-12T14:01:28.831Z,2.33
2017-12-12T14:03:57.109Z,2.20
2017-12-12T14:06:25.381Z,2.20
2017-12-12T14:08:53.780Z,2.17
2017-12-12T14:11:22.061Z,1.73
2017-12-12T14:13:50.317Z,2.10
2017-12-12T14:16:18.610Z,1.80
2017-12-12T14:18:46.988Z,1.90
2017-12-12T14:21:15.284Z,1.80
2017-12-12T14:23:43.539Z,2.23
2017-12-12T14:26:11.852Z,1.70
2017-12-12T14:28:40.112Z,1.60
2017-12-12T14:31:08.403Z,2.10
2017-12-12T14:33:36.738Z,1.77
2017-12-12T14:36:05.012Z,2.00
2017-12-12T14:38:33.317Z,1.70
2017-12-12T14:41:01.613Z,1.60
2017-12-12T14:43:29.934Z,1.57
2017-12-12T14:45:58.231Z,1.77
2017-12-12T14:48:26.512Z,1.80
2017-12-12T14:50:54.781Z,1.63
2017-12-12T14:53:23.153Z,1.70
2017-12-12T14:55:51.445Z,2.00
2017-12-12T14:58:19.721Z,1.87
2017-12-12T15:00:47.981Z,1.60
2017-12-12T15:03:16.258Z,1.83
2017-12-12T15:05:44.516Z,1.50
2017-12-12T15:08:12.804Z,1.70
2017-12-12T15:10:41.149Z,1.90
2017-12-12T15:13:09.409Z,1.40
2017-12-12T15:15:37.680Z,1.50
2017-12-12T15:18:06.003Z,1.77
2017-12-12T15:20:34.269Z,1.30
2017-12-12T15:23:02.676Z,1.73
2017-12-12T15:25:30.956Z,1.50
2017-12-12T15:27:59.234Z,1.90
2017-12-12T15:30:27.525Z,1.93
2017-12-12T15:32:55.793Z,1.70
2017-12-12T15:35:24.069Z,1.87
2017-12-12T15:37:52.329Z,1.63
2017-12-12T15:40:20.847Z,2.20
2017-12-12T15:42:49.316Z,1.60
2017-12-12T15:45:17.598Z,1.80
2017-12-12T15:47:45.859Z,1.70
2017-12-12T15:50:14.149Z,1.93
2017-12-12T15:52:42.424Z,1.63
2017-12-12T15:55:10.713Z,1.47
2017-12-12T15:57:39.055Z,1.63
2017-12-12T16:00:07.333Z,1.60
2017-12-12T16:02:35.617Z,1.67
2017-12-12T16:05:03.904Z,1.77
2017-12-12T16:07:32.192Z,1.43
2017-12-12T16:10:00.462Z,1.40
2017-12-12T16:12:28.807Z,1.60
2017-12-12T16:14:57.076Z,1.77
2017-12-12T16:17:25.397Z,1.33
2017-12-12T16:19:54.740Z,1.53
2017-12-12T16:22:23.589Z,1.50
2017-12-12T16:24:51.861Z,1.87
2017-12-12T16:27:20.574Z,1.10
2017-12-12T16:29:49.386Z,1.10
2017-12-12T16:32:17.729Z,1.30
2017-12-12T16:34:45.969Z,1.30
2017-12-12T16:37:14.276Z,1.10
2017-12-12T16:39:42.522Z,1.37
2017-12-12T16:42:10.802Z,1.67
2017-12-12T16:44:39.086Z,1.87
2017-12-12T16:47:07.369Z,1.70
2017-12-12T16:49:35.713Z,1.30
2017-12-12T16:52:03.989Z,2.10
2017-12-12T16:54:32.258Z,3.03
2017-12-12T16:57:00.549Z,3.10
2017-12-12T16:59:28.796Z,3.60
2017-12-12T17:01:57.069Z,3.87
2017-12-12T17:04:25.328Z,3.80
2017-12-12T17:06:53.644Z,3.10
2017-12-12T17:09:22.162Z,3.60
2017-12-12T17:11:50.453Z,3.67
2017-12-12T17:14:18.720Z,2.80
2017-12-12T17:16:46.997Z,3.40
2017-12-12T17:19:15.282Z,2.73
2017-12-12T17:21:43.573Z,2.97
2017-12-12T17:24:11.900Z,2.77
2017-12-12T17:26:40.180Z,2.60
2017-12-12T17:29:08.476Z,2.90
2017-12-12T17:31:36.756Z,3.00
2017-12-12T17:34:05.032Z,2.57
2017-12-12T17:36:33.309Z,2.87
2017-12-12T17:39:01.664Z,2.27
2017-12-12T17:41:29.978Z,2.30
2017-12-12T17:43:59.278Z,2.43
2017-12-12T17:46:27.583Z,2.07
2017-12-12T17:48:55.850Z,2.50
2017-12-12T17:51:24.301Z,2.60
2017-12-12T17:53:53.104Z,2.10
2017-12-12T17:56:21.453Z,1.93
2017-12-12T17:58:49.708Z,2.20
2017-12-12T18:01:18.020Z,1.70
2017-12-12T18:03:46.416Z,1.80
2017-12-12T18:06:16.273Z,2.17
2017-12-12T18:08:44.860Z,2.07
2017-12-12T18:11:13.157Z,1.93
2017-12-12T18:13:41.608Z,1.70
2017-12-12T18:16:09.926Z,1.50
2017-12-12T18:18:38.173Z,1.53
2017-12-12T18:21:06.493Z,1.47
2017-12-12T18:23:34.793Z,1.60
2017-12-12T18:26:04.009Z,1.20
2017-12-12T18:28:34.166Z,2.17
2017-12-12T18:31:04.881Z,1.50
2017-12-12T18:33:35.649Z,1.57
2017-12-12T18:36:06.839Z,1.47
2017-12-12T18:38:37.321Z,1.57
2017-12-12T18:41:05.629Z,1.30
2017-12-12T18:43:34.081Z,1.20
2017-12-12T18:46:02.389Z,1.47
2017-12-12T18:48:30.777Z,1.77
2017-12-12T18:50:59.289Z,1.30
2017-12-12T18:53:27.542Z,1.27
2017-12-12T18:55:55.807Z,1.30
2017-12-12T18:58:24.084Z,1.47
2017-12-12T19:00:52.740Z,1.60
2017-12-12T19:03:21.040Z,1.50
2017-12-12T19:05:49.345Z,1.30
2017-12-12T19:08:17.601Z,1.30
2017-12-12T19:10:45.922Z,1.37
2017-12-12T19:13:14.225Z,1.43
2017-12-12T19:15:42.484Z,1.30
2017-12-12T19:18:10.852Z,1.20
2017-12-12T19:20:39.125Z,1.10
2017-12-12T19:23:07.681Z,1.23
2017-12-12T19:25:37.165Z,1.37
2017-12-12T19:28:06.849Z,1.20
2017-12-12T19:30:35.941Z,1.30
2017-12-12T19:33:04.222Z,1.10
2017-12-12T19:35:32.489Z,1.27
2017-12-12T19:38:00.882Z,1.27
2017-12-12T19:40:29.320Z,1.20
2017-12-12T19:42:57.569Z,1.20
2017-12-12T19:45:25.841Z,1.00
2017-12-12T19:47:54.135Z,1.10
2017-12-12T19:50:22.400Z,1.03
2017-12-12T19:52:50.677Z,1.10
2017-12-12T19:55:18.998Z,1.00
2017-12-12T19:57:47.265Z,1.47
2017-12-12T20:00:15.573Z,1.30
2017-12-12T20:02:43.898Z,1.70
2017-12-12T20:05:12.189Z,1.47
2017-12-12T20:07:40.437Z,1.30
2017-12-12T20:10:09.117Z,1.33
2017-12-12T20:12:37.588Z,1.40
2017-12-12T20:15:05.869Z,1.40
2017-12-12T20:17:34.258Z,1.60
2017-12-12T20:20:03.728Z,1.50
2017-12-12T20:22:33.029Z,1.40
2017-12-12T20:25:01.490Z,1.50
2017-12-12T20:27:29.808Z,1.63
2017-12-12T20:29:58.041Z,1.20
2017-12-12T20:32:26.333Z,1.20
2017-12-12T20:34:54.628Z,1.20
2017-12-12T20:37:22.961Z,1.20
2017-12-12T20:39:51.209Z,1.20
2017-12-12T20:42:19.500Z,1.20
2017-12-12T20:44:47.737Z,1.10
2017-12-12T20:47:16.033Z,1.30
2017-12-12T20:49:44.296Z,1.10
2017-12-12T20:52:12.813Z,1.80
2017-12-12T20:54:42.114Z,1.50
2017-12-12T20:57:11.741Z,1.37
2017-12-12T20:59:42.646Z,1.37
2017-12-12T21:02:14.855Z,1.47
2017-12-12T21:04:46.618Z,1.60
2017-12-12T21:07:20.373Z,1.33
2017-12-12T21:09:48.689Z,1.43
2017-12-12T21:12:16.982Z,1.20
2017-12-12T21:14:45.319Z,1.70
2017-12-12T21:17:20.537Z,1.33
2017-12-12T21:19:49.133Z,1.30
2017-12-12T21:22:17.442Z,1.40
2017-12-12T21:24:45.896Z,1.60
2017-12-12T21:27:14.198Z,1.70
2017-12-12T21:29:42.480Z,1.40
2017-12-12T21:32:10.849Z,1.40
2017-12-12T21:34:39.169Z,1.50
2017-12-12T21:37:07.429Z,1.50
2017-12-12T21:39:36.377Z,1.43
2017-12-12T21:42:04.808Z,1.43
2017-12-12T21:44:33.196Z,1.53
2017-12-12T21:47:01.453Z,1.77
2017-12-12T21:49:29.982Z,1.50
2017-12-12T21:51:58.302Z,2.27
2017-12-12T21:54:26.788Z,1.67
2017-12-12T21:56:55.841Z,1.70
2017-12-12T21:59:25.025Z,1.77
2017-12-12T22:01:54.538Z,1.60
2017-12-12T22:05:10.268Z,1.60
2017-12-12T22:07:38.946Z,1.50
2017-12-12T22:10:07.300Z,1.70
2017-12-12T22:12:35.695Z,1.73
2017-12-12T22:15:04.347Z,1.60
2017-12-12T22:17:32.725Z,2.00
2017-12-12T22:20:01.290Z,1.70
2017-12-12T22:22:29.802Z,1.40
2017-12-12T22:24:58.417Z,1.47
2017-12-12T22:27:26.736Z,1.60
2017-12-12T22:29:55.177Z,1.50
2017-12-12T22:32:23.841Z,1.23
2017-12-12T22:34:52.484Z,1.20
2017-12-12T22:37:21.032Z,1.20
2017-12-12T22:39:50.500Z,1.47
2017-12-12T22:42:19.257Z,1.40
2017-12-12T22:44:47.701Z,1.37
2017-12-12T22:47:16.125Z,1.50
2017-12-12T22:49:45.423Z,1.50
2017-12-12T22:52:14.092Z,1.43
2017-12-12T22:54:42.504Z,1.30
2017-12-12T22:57:10.825Z,1.20
2017-12-12T22:59:39.128Z,1.37
2017-12-12T23:02:07.777Z,1.60
2017-12-12T23:04:36.253Z,1.20
2017-12-12T23:07:04.737Z,1.27
2017-12-12T23:09:33.314Z,1.33
2017-12-12T23:12:01.938Z,1.60
2017-12-12T23:14:30.214Z,1.20
2017-12-12T23:16:58.759Z,1.43
2017-12-12T23:19:27.385Z,0.90
2017-12-12T23:21:56.116Z,1.10
2017-12-12T23:24:24.492Z,1.30
2017-12-12T23:26:52.878Z,1.20
2017-12-12T23:29:21.197Z,1.70
2017-12-12T23:31:50.349Z,1.30
2017-12-12T23:34:19.786Z,1.27
2017-12-12T23:36:48.253Z,1.07
2017-12-12T23:39:16.509Z,1.33
2017-12-12T23:41:44.992Z,1.50
2017-12-12T23:44:16.404Z,1.27
2017-12-12T23:46:44.924Z,1.30
2017-12-12T23:49:13.392Z,1.53
2017-12-12T23:51:41.976Z,1.30
2017-12-12T23:54:10.432Z,1.20
2017-12-12T23:56:38.796Z,1.03
2017-12-12T23:59:07.141Z,1.23
